createdAt,value
2018-11-21T00:00:20.745Z,10.13
2018-11-21T00:02:50.220Z,9.08
2018-11-21T00:05:19.458Z,9.20
2018-11-21T00:07:48.799Z,10.58
2018-11-21T00:10:18.312Z,8.63
2018-11-21T00:12:50.932Z,9.15
2018-11-21T00:15:20.166Z,8.85
2018-11-21T00:17:49.349Z,8.20
2018-11-21T00:20:18.514Z,8.35
2018-11-21T00:22:47.714Z,9.00
2018-11-21T00:25:16.885Z,8.55
2018-11-21T00:27:46.242Z,7.92
2018-11-21T00:30:16.300Z,10.28
2018-11-21T00:32:45.498Z,8.20
2018-11-21T00:35:14.648Z,9.80
2018-11-21T00:37:44.134Z,9.60
2018-11-21T00:40:15.106Z,7.00
2018-11-21T00:42:46.929Z,8.13
2018-11-21T00:45:13.776Z,9.78
2018-11-21T00:47:42.956Z,8.53
2018-11-21T00:50:12.136Z,7.80
2018-11-21T00:52:41.331Z,8.43
2018-11-21T00:55:10.503Z,11.03
2018-11-21T00:57:40.124Z,9.78
2018-11-21T01:00:11.452Z,10.18
2018-11-21T01:02:40.754Z,11.88
2018-11-21T01:05:09.912Z,10.68
2018-11-21T01:07:39.106Z,14.15
2018-11-21T01:10:08.284Z,15.32
2018-11-21T01:12:37.504Z,15.48
2018-11-21T01:15:07.580Z,13.95
2018-11-21T01:17:36.835Z,14.25
2018-11-21T01:20:07.705Z,13.18
2018-11-21T01:22:37.319Z,15.43
2018-11-21T01:25:07.723Z,14.38
2018-11-21T01:27:36.918Z,15.35
2018-11-21T01:30:07.413Z,15.90
2018-11-21T01:32:36.864Z,14.85
2018-11-21T01:35:06.783Z,17.48
2018-11-21T01:37:36.041Z,17.37
2018-11-21T01:40:05.995Z,18.65
2018-11-21T01:42:35.175Z,17.67
2018-11-21T01:45:05.181Z,17.67
2018-11-21T01:47:34.451Z,18.82
2018-11-21T01:50:03.643Z,20.20
2018-11-21T01:52:32.935Z,19.07
2018-11-21T01:55:02.104Z,18.77
2018-11-21T01:57:31.402Z,19.30
2018-11-21T02:00:00.558Z,21.23
2018-11-21T02:02:29.855Z,19.23
2018-11-21T02:04:59.021Z,20.57
2018-11-21T02:07:28.296Z,20.30
2018-11-21T02:09:57.718Z,19.30
2018-11-21T02:12:27.289Z,21.40
2018-11-21T02:14:56.498Z,21.75
2018-11-21T02:17:26.041Z,19.90
2018-11-21T02:19:55.220Z,20.88
2018-11-21T02:22:24.391Z,18.82
2018-11-21T02:24:53.552Z,23.20
2018-11-21T02:27:22.759Z,22.10
2018-11-21T02:29:51.939Z,20.77
2018-11-21T02:32:21.212Z,19.95
2018-11-21T02:34:50.456Z,21.82
2018-11-21T02:37:20.042Z,22.62
2018-11-21T02:39:49.291Z,23.27
2018-11-21T02:42:18.485Z,21.57
2018-11-21T02:44:48.013Z,21.37
2018-11-21T02:47:17.323Z,21.65
2018-11-21T02:49:46.491Z,20.43
2018-11-21T02:52:15.773Z,18.75
2018-11-21T02:54:44.934Z,19.95
2018-11-21T02:57:31.013Z,18.48
2018-11-21T03:00:12.862Z,18.23
2018-11-21T03:02:42.053Z,20.75
2018-11-21T03:05:11.404Z,22.45
2018-11-21T03:08:09.053Z,17.52
2018-11-21T03:10:38.223Z,20.62
2018-11-21T03:13:07.516Z,26.00
2018-11-21T03:15:36.678Z,23.40
2018-11-21T03:18:06.219Z,26.00
2018-11-21T03:20:35.389Z,20.60
2018-11-21T03:23:04.725Z,19.62
2018-11-21T03:25:34.053Z,23.62
2018-11-21T03:28:03.271Z,20.82
2018-11-21T03:30:32.454Z,21.30
2018-11-21T03:33:01.642Z,21.80
2018-11-21T03:35:30.937Z,20.80
2018-11-21T03:38:00.146Z,21.70
2018-11-21T03:40:29.322Z,24.37
2018-11-21T03:42:58.540Z,23.47
2018-11-21T03:45:27.706Z,30.08
2018-11-21T03:47:56.875Z,39.18
2018-11-21T03:50:26.032Z,29.77
2018-11-21T03:52:55.333Z,33.45
2018-11-21T03:55:24.489Z,29.98
2018-11-21T03:57:53.667Z,22.32
2018-11-21T04:00:22.832Z,23.52
2018-11-21T04:02:52.019Z,22.93
2018-11-21T04:05:21.180Z,21.68
2018-11-21T04:07:50.446Z,20.85
2018-11-21T04:10:19.604Z,30.05
2018-11-21T04:12:48.797Z,24.15
2018-11-21T04:15:17.961Z,21.50
2018-11-21T04:17:47.135Z,27.93
2018-11-21T04:20:17.080Z,26.35
2018-11-21T04:22:46.263Z,21.55
2018-11-21T04:25:15.428Z,20.27
2018-11-21T04:27:44.605Z,21.80
2018-11-21T04:30:13.968Z,21.33
2018-11-21T04:32:43.290Z,20.05
2018-11-21T04:35:12.573Z,19.73
2018-11-21T04:37:41.751Z,22.37
2018-11-21T04:40:11.225Z,23.70
2018-11-21T04:42:40.407Z,22.87
2018-11-21T04:45:10.655Z,23.60
2018-11-21T04:47:39.843Z,23.00
2018-11-21T04:50:09.298Z,25.65
2018-11-21T04:52:38.481Z,30.85
2018-11-21T04:55:08.667Z,22.58
2018-11-21T04:57:37.863Z,22.13
2018-11-21T05:00:09.526Z,23.20
2018-11-21T05:02:38.760Z,23.10
2018-11-21T05:05:09.870Z,22.15
2018-11-21T05:07:39.103Z,24.15
2018-11-21T05:10:09.134Z,21.62
2018-11-21T05:12:38.716Z,26.52
2018-11-21T05:15:08.425Z,23.90
2018-11-21T05:17:37.632Z,25.10
2018-11-21T05:20:06.834Z,23.18
2018-11-21T05:22:36.066Z,21.73
2018-11-21T05:25:06.436Z,25.17
2018-11-21T05:27:35.595Z,25.95
2018-11-21T05:30:07.399Z,26.90
2018-11-21T05:32:36.571Z,24.72
2018-11-21T05:35:06.413Z,23.80
2018-11-21T05:37:35.597Z,21.85
2018-11-21T05:40:06.795Z,26.50
2018-11-21T05:42:36.046Z,26.85
2018-11-21T05:45:06.160Z,25.43
2018-11-21T05:47:35.465Z,24.77
2018-11-21T05:50:05.385Z,26.02
2018-11-21T05:52:34.550Z,23.42
2018-11-21T05:55:03.752Z,25.00
2018-11-21T05:57:33.023Z,26.97
2018-11-21T06:00:02.213Z,25.72
2018-11-21T06:02:31.381Z,28.00
2018-11-21T06:05:00.565Z,31.35
2018-11-21T06:07:29.723Z,25.50
2018-11-21T06:09:59.739Z,27.85
2018-11-21T06:12:28.910Z,27.05
2018-11-21T06:14:58.099Z,26.42
2018-11-21T06:17:27.608Z,27.37
2018-11-21T06:19:56.878Z,27.58
2018-11-21T06:22:26.043Z,27.67
2018-11-21T06:24:55.241Z,26.25
2018-11-21T06:27:24.434Z,26.68
2018-11-21T06:29:53.639Z,29.10
2018-11-21T06:32:22.807Z,28.12
2018-11-21T06:34:53.000Z,28.65
2018-11-21T06:37:22.356Z,30.60
2018-11-21T06:39:51.540Z,25.35
2018-11-21T06:42:21.217Z,27.58
2018-11-21T06:44:50.414Z,28.77
2018-11-21T06:47:19.593Z,29.40
2018-11-21T06:49:49.221Z,29.75
2018-11-21T06:52:22.289Z,27.67
2018-11-21T06:54:47.751Z,29.05
2018-11-21T06:57:16.953Z,29.40
2018-11-21T07:02:35.257Z,32.33
2018-11-21T07:05:04.955Z,30.17
2018-11-21T07:07:34.357Z,29.18
2018-11-21T07:10:03.874Z,30.00
2018-11-21T07:12:33.073Z,29.05
2018-11-21T07:15:02.289Z,30.48
2018-11-21T07:17:31.513Z,30.30
2018-11-21T07:20:00.705Z,31.02
2018-11-21T07:22:29.876Z,30.02
2018-11-21T07:24:59.074Z,31.05
2018-11-21T07:27:28.248Z,30.08
2018-11-21T07:29:57.555Z,32.98
2018-11-21T07:32:30.727Z,29.70
2018-11-21T07:34:59.920Z,32.73
2018-11-21T07:37:29.149Z,32.80
2018-11-21T07:39:58.355Z,32.88
2018-11-21T07:42:27.683Z,33.38
2018-11-21T07:44:57.663Z,36.00
2018-11-21T07:47:26.826Z,39.33
2018-11-21T07:49:56.061Z,36.05
2018-11-21T07:52:25.603Z,33.53
2018-11-21T07:54:54.804Z,35.83
2018-11-21T07:57:37.956Z,40.45
2018-11-21T08:01:11.904Z,35.83
2018-11-21T08:04:01.786Z,35.30
2018-11-21T08:06:40.508Z,37.93
2018-11-21T08:09:32.819Z,36.68
2018-11-21T08:12:20.385Z,37.60
2018-11-21T08:15:11.468Z,36.55
2018-11-21T08:17:59.391Z,38.58
2018-11-21T08:20:46.513Z,37.73
2018-11-21T08:23:28.317Z,40.30
2018-11-21T08:26:08.935Z,37.53
2018-11-21T08:28:38.120Z,36.88
2018-11-21T08:31:07.630Z,41.53
2018-11-21T08:33:36.841Z,38.30
2018-11-21T08:36:06.822Z,40.88
2018-11-21T08:38:35.993Z,36.35
2018-11-21T08:41:05.588Z,37.98
2018-11-21T08:43:34.769Z,39.78
2018-11-21T08:46:03.969Z,38.30
2018-11-21T08:48:33.673Z,43.17
2018-11-21T08:51:03.170Z,36.35
2018-11-21T08:53:34.147Z,38.98
2018-11-21T08:56:03.369Z,36.90
2018-11-21T08:58:32.549Z,37.78
2018-11-21T09:01:04.551Z,38.63
2018-11-21T09:03:33.723Z,39.35
2018-11-21T09:06:04.483Z,39.95
2018-11-21T09:08:32.485Z,38.80
2018-11-21T09:11:02.100Z,40.65
2018-11-21T09:13:31.361Z,38.70
2018-11-21T09:16:00.573Z,40.63
2018-11-21T09:18:30.225Z,37.00
2018-11-21T09:20:59.510Z,41.30
2018-11-21T09:23:28.659Z,40.60
2018-11-21T09:25:57.851Z,43.38
2018-11-21T09:28:27.087Z,41.98
2018-11-21T09:30:56.267Z,42.20
2018-11-21T09:33:25.522Z,43.48
2018-11-21T09:35:54.712Z,41.90
2018-11-21T09:38:23.896Z,41.40
2018-11-21T09:40:53.215Z,47.88
2018-11-21T09:43:22.489Z,44.15
2018-11-21T09:45:52.110Z,43.85
2018-11-21T09:48:21.285Z,39.48
2018-11-21T09:50:50.454Z,39.25
2018-11-21T09:53:19.651Z,41.02
2018-11-21T09:55:48.879Z,40.00
2018-11-21T09:58:18.087Z,43.35
2018-11-21T10:01:42.525Z,37.80
2018-11-21T10:04:11.692Z,39.25
2018-11-21T10:06:43.778Z,42.33
2018-11-21T10:09:21.213Z,42.50
2018-11-21T10:11:50.485Z,44.05
2018-11-21T10:14:19.948Z,45.38
2018-11-21T10:16:49.134Z,42.65
2018-11-21T10:19:18.341Z,44.50
2018-11-21T10:21:47.534Z,43.65
2018-11-21T10:24:17.038Z,38.65
2018-11-21T10:26:46.343Z,42.53
2018-11-21T10:29:15.607Z,44.10
2018-11-21T10:31:44.833Z,47.33
2018-11-21T10:34:14.001Z,48.45
2018-11-21T10:36:43.572Z,43.20
2018-11-21T10:39:12.742Z,43.87
2018-11-21T10:41:42.445Z,46.23
2018-11-21T10:44:11.620Z,42.33
2018-11-21T10:46:40.811Z,43.08
2018-11-21T10:49:09.994Z,45.88
2018-11-21T10:51:39.211Z,42.25
2018-11-21T10:54:08.514Z,45.55
2018-11-21T10:56:37.849Z,44.35
2018-11-21T10:59:07.183Z,43.50
2018-11-21T11:01:53.996Z,42.98
2018-11-21T11:04:46.876Z,45.08
2018-11-21T11:07:50.315Z,41.10
2018-11-21T11:10:56.983Z,42.83
2018-11-21T11:13:44.264Z,54.58
2018-11-21T11:16:41.472Z,48.30
2018-11-21T11:19:35.625Z,43.92
2018-11-21T11:22:32.934Z,43.92
2018-11-21T11:25:27.220Z,42.85
2018-11-21T11:28:21.236Z,43.78
2018-11-21T11:31:08.521Z,42.73
2018-11-21T11:33:56.799Z,44.95
2018-11-21T11:37:00.246Z,44.75
2018-11-21T11:40:00.869Z,41.60
2018-11-21T11:42:46.518Z,42.67
2018-11-21T11:45:51.643Z,40.75
2018-11-21T11:48:38.861Z,45.25
2018-11-21T11:51:25.844Z,44.08
2018-11-21T11:54:14.129Z,46.50
2018-11-21T11:57:01.092Z,45.75
2018-11-21T11:59:58.228Z,42.90
2018-11-21T12:03:04.767Z,48.10
2018-11-21T12:05:51.763Z,43.25
2018-11-21T12:08:55.335Z,48.10
2018-11-21T12:11:59.150Z,41.83
2018-11-21T12:14:45.937Z,45.48
2018-11-21T12:17:32.855Z,45.10
2018-11-21T12:20:39.338Z,39.92
2018-11-21T12:23:39.796Z,45.95
2018-11-21T12:26:15.890Z,45.48
2018-11-21T12:29:02.530Z,41.40
2018-11-21T12:31:43.744Z,42.17
2018-11-21T12:34:44.144Z,43.28
2018-11-21T12:37:32.412Z,42.20
2018-11-21T12:40:20.711Z,43.35
2018-11-21T12:43:13.211Z,41.20
2018-11-21T12:45:55.991Z,42.30
2018-11-21T12:48:44.262Z,41.80
2018-11-21T12:51:37.445Z,42.30
2018-11-21T12:54:12.886Z,48.78
2018-11-21T12:57:02.953Z,45.70
2018-11-21T12:59:47.032Z,42.27
2018-11-21T13:02:34.200Z,42.67
2018-11-21T13:05:37.618Z,44.45
2018-11-21T13:08:38.055Z,47.62
2018-11-21T13:11:19.127Z,46.10
2018-11-21T13:14:05.879Z,42.38
2018-11-21T13:17:09.334Z,47.13
2018-11-21T13:20:12.945Z,53.25
2018-11-21T13:23:13.548Z,44.20
2018-11-21T13:25:50.682Z,45.80
2018-11-21T13:28:40.672Z,45.50
2018-11-21T13:31:34.713Z,45.90
2018-11-21T13:34:28.726Z,43.87
2018-11-21T13:37:31.939Z,50.08
2018-11-21T13:40:26.310Z,45.43
2018-11-21T13:43:13.460Z,48.38
2018-11-21T13:45:56.107Z,49.90
2018-11-21T13:48:44.736Z,46.83
2018-11-21T13:51:41.718Z,45.67
2018-11-21T13:54:28.944Z,49.55
2018-11-21T13:56:58.106Z,50.03
2018-11-21T13:59:27.381Z,50.78
2018-11-21T14:01:56.562Z,50.98
2018-11-21T14:04:25.758Z,53.30
2018-11-21T14:06:55.836Z,50.75
2018-11-21T14:09:25.065Z,54.13
2018-11-21T14:11:54.273Z,52.20
2018-11-21T14:14:23.473Z,49.05
2018-11-21T14:16:52.631Z,50.17
2018-11-21T14:19:21.811Z,49.63
2018-11-21T14:21:55.803Z,50.28
2018-11-21T14:24:21.182Z,53.38
2018-11-21T14:26:50.423Z,50.70
2018-11-21T14:29:19.601Z,52.83
2018-11-21T14:31:48.777Z,53.55
2018-11-21T14:34:18.078Z,54.38
2018-11-21T14:36:47.278Z,55.38
2018-11-21T14:39:17.067Z,55.50
2018-11-21T14:41:47.065Z,50.20
2018-11-21T14:44:16.377Z,52.75
2018-11-21T14:46:48.726Z,56.88
2018-11-21T14:49:18.632Z,52.38
2018-11-21T14:51:48.104Z,54.42
2018-11-21T14:54:17.293Z,53.33
2018-11-21T14:56:46.552Z,55.88
2018-11-21T14:59:15.874Z,60.08
2018-11-21T15:01:45.161Z,54.30
2018-11-21T15:04:14.450Z,53.20
2018-11-21T15:06:43.653Z,56.60
2018-11-21T15:09:13.791Z,56.37
2018-11-21T15:11:43.259Z,54.13
2018-11-21T15:14:12.558Z,54.60
2018-11-21T15:16:41.787Z,62.85
2018-11-21T15:19:11.322Z,57.83
2018-11-21T15:21:40.503Z,58.13
2018-11-21T15:24:09.703Z,53.38
2018-11-21T15:26:38.860Z,58.30
2018-11-21T15:29:08.062Z,52.35
2018-11-21T15:31:37.235Z,55.83
2018-11-21T15:34:06.520Z,53.45
2018-11-21T15:36:35.692Z,51.73
2018-11-21T15:39:08.333Z,60.95
2018-11-21T15:41:37.827Z,59.08
2018-11-21T15:44:07.054Z,58.33
2018-11-21T15:46:36.225Z,55.33
2018-11-21T15:49:05.740Z,53.50
2018-11-21T15:51:34.960Z,54.10
2018-11-21T15:54:04.230Z,54.35
